sensor_id;sensor_type;location;lat;lon;timestamp;temperature;humidity
23499;DHT22;11926;48.120;11.562;2023-05-16T00:01:08;11.90;96.10
23499;DHT22;11926;48.120;11.562;2023-05-16T00:03:57;11.90;96.10
23499;DHT22;11926;48.120;11.562;2023-05-16T00:06:44;11.90;96.10
23499;DHT22;11926;48.120;11.562;2023-05-16T00:09:32;11.90;96.10
23499;DHT22;11926;48.120;11.562;2023-05-16T00:12:19;11.90;96.10
23499;DHT22;11926;48.120;11.562;2023-05-16T00:15:10;11.90;96.10
23499;DHT22;11926;48.120;11.562;2023-05-16T00:17:59;11.90;96.10
23499;DHT22;11926;48.120;11.562;2023-05-16T00:20:46;11.90;96.10
23499;DHT22;11926;48.120;11.562;2023-05-16T00:23:33;11.90;96.10
23499;DHT22;11926;48.120;11.562;2023-05-16T00:26:21;11.90;96.10
23499;DHT22;11926;48.120;11.562;2023-05-16T00:29:08;11.90;96.10
23499;DHT22;11926;48.120;11.562;2023-05-16T00:31:56;11.90;96.10
23499;DHT22;11926;48.120;11.562;2023-05-16T00:34:43;11.90;96.50
23499;DHT22;11926;48.120;11.562;2023-05-16T00:37:31;11.90;96.10
23499;DHT22;11926;48.120;11.562;2023-05-16T00:40:19;11.90;96.10
23499;DHT22;11926;48.120;11.562;2023-05-16T00:43:06;11.90;96.10
23499;DHT22;11926;48.120;11.562;2023-05-16T00:45:53;11.90;96.30
23499;DHT22;11926;48.120;11.562;2023-05-16T00:48:44;11.90;96.20
23499;DHT22;11926;48.120;11.562;2023-05-16T00:51:31;11.80;96.10
23499;DHT22;11926;48.120;11.562;2023-05-16T00:54:21;11.80;96.10
23499;DHT22;11926;48.120;11.562;2023-05-16T00:57:10;11.80;96.10
23499;DHT22;11926;48.120;11.562;2023-05-16T00:59:58;11.80;96.10
23499;DHT22;11926;48.120;11.562;2023-05-16T01:02:45;11.80;96.10
23499;DHT22;11926;48.120;11.562;2023-05-16T01:05:34;11.80;96.10
23499;DHT22;11926;48.120;11.562;2023-05-16T01:08:21;11.80;96.20
23499;DHT22;11926;48.120;11.562;2023-05-16T01:11:14;11.80;96.20
23499;DHT22;11926;48.120;11.562;2023-05-16T01:14:11;11.80;96.20
23499;DHT22;11926;48.120;11.562;2023-05-16T01:17:09;11.80;96.10
23499;DHT22;11926;48.120;11.562;2023-05-16T01:20:06;11.80;96.30
23499;DHT22;11926;48.120;11.562;2023-05-16T01:23:16;11.80;96.30
23499;DHT22;11926;48.120;11.562;2023-05-16T01:26:13;11.80;96.30
23499;DHT22;11926;48.120;11.562;2023-05-16T01:29:01;11.80;96.00
23499;DHT22;11926;48.120;11.562;2023-05-16T01:31:49;11.80;96.30
23499;DHT22;11926;48.120;11.562;2023-05-16T01:34:36;11.80;96.30
23499;DHT22;11926;48.120;11.562;2023-05-16T01:37:31;11.80;96.20
23499;DHT22;11926;48.120;11.562;2023-05-16T01:40:25;11.80;96.30
23499;DHT22;11926;48.120;11.562;2023-05-16T01:43:19;11.80;96.30
23499;DHT22;11926;48.120;11.562;2023-05-16T01:46:09;11.80;96.40
23499;DHT22;11926;48.120;11.562;2023-05-16T01:49:03;11.80;96.30
23499;DHT22;11926;48.120;11.562;2023-05-16T01:51:57;11.70;96.30
23499;DHT22;11926;48.120;11.562;2023-05-16T01:54:47;11.70;96.30
23499;DHT22;11926;48.120;11.562;2023-05-16T01:57:39;11.70;96.40
23499;DHT22;11926;48.120;11.562;2023-05-16T02:00:30;11.70;96.40
23499;DHT22;11926;48.120;11.562;2023-05-16T02:03:17;11.70;96.40
23499;DHT22;11926;48.120;11.562;2023-05-16T02:06:04;11.70;96.40
23499;DHT22;11926;48.120;11.562;2023-05-16T02:08:52;11.70;96.40
23499;DHT22;11926;48.120;11.562;2023-05-16T02:11:39;11.60;96.40
23499;DHT22;11926;48.120;11.562;2023-05-16T02:14:26;11.60;96.40
23499;DHT22;11926;48.120;11.562;2023-05-16T02:17:15;11.60;96.50
23499;DHT22;11926;48.120;11.562;2023-05-16T02:20:02;11.60;96.50
23499;DHT22;11926;48.120;11.562;2023-05-16T02:22:51;11.60;96.50
23499;DHT22;11926;48.120;11.562;2023-05-16T02:25:38;11.60;96.50
23499;DHT22;11926;48.120;11.562;2023-05-16T02:28:28;11.60;96.60
23499;DHT22;11926;48.120;11.562;2023-05-16T02:31:25;11.60;96.60
23499;DHT22;11926;48.120;11.562;2023-05-16T02:34:14;11.60;96.50
23499;DHT22;11926;48.120;11.562;2023-05-16T02:37:01;11.50;96.50
23499;DHT22;11926;48.120;11.562;2023-05-16T02:39:48;11.60;96.60
23499;DHT22;11926;48.120;11.562;2023-05-16T02:42:35;11.60;96.60
23499;DHT22;11926;48.120;11.562;2023-05-16T02:45:23;11.50;96.50
23499;DHT22;11926;48.120;11.562;2023-05-16T02:48:10;11.50;96.50
23499;DHT22;11926;48.120;11.562;2023-05-16T02:51:00;11.50;96.60
23499;DHT22;11926;48.120;11.562;2023-05-16T02:53:47;11.50;96.60
23499;DHT22;11926;48.120;11.562;2023-05-16T02:56:34;11.50;96.80
23499;DHT22;11926;48.120;11.562;2023-05-16T02:59:22;11.50;96.60
23499;DHT22;11926;48.120;11.562;2023-05-16T03:02:09;11.50;96.60
23499;DHT22;11926;48.120;11.562;2023-05-16T03:04:57;11.40;96.60
23499;DHT22;11926;48.120;11.562;2023-05-16T03:07:46;11.40;96.60
23499;DHT22;11926;48.120;11.562;2023-05-16T03:10:33;11.40;96.60
23499;DHT22;11926;48.120;11.562;2023-05-16T03:13:20;11.40;96.60
23499;DHT22;11926;48.120;11.562;2023-05-16T03:16:07;11.40;96.60
23499;DHT22;11926;48.120;11.562;2023-05-16T03:18:55;11.40;96.70
23499;DHT22;11926;48.120;11.562;2023-05-16T03:21:43;11.50;96.70
23499;DHT22;11926;48.120;11.562;2023-05-16T03:24:32;11.40;96.60
23499;DHT22;11926;48.120;11.562;2023-05-16T03:27:22;11.40;96.60
23499;DHT22;11926;48.120;11.562;2023-05-16T03:30:09;11.50;96.70
23499;DHT22;11926;48.120;11.562;2023-05-16T03:32:57;11.40;96.70
23499;DHT22;11926;48.120;11.562;2023-05-16T03:35:45;11.40;96.60
23499;DHT22;11926;48.120;11.562;2023-05-16T03:38:32;11.40;96.70
23499;DHT22;11926;48.120;11.562;2023-05-16T03:41:22;11.40;96.70
23499;DHT22;11926;48.120;11.562;2023-05-16T03:44:09;11.40;96.70
23499;DHT22;11926;48.120;11.562;2023-05-16T03:46:56;11.40;96.70
23499;DHT22;11926;48.120;11.562;2023-05-16T03:49:44;11.40;96.80
23499;DHT22;11926;48.120;11.562;2023-05-16T03:52:31;11.40;96.80
23499;DHT22;11926;48.120;11.562;2023-05-16T03:55:20;11.40;96.70
23499;DHT22;11926;48.120;11.562;2023-05-16T03:58:08;11.40;96.70
23499;DHT22;11926;48.120;11.562;2023-05-16T04:00:57;11.40;96.70
23499;DHT22;11926;48.120;11.562;2023-05-16T04:03:44;11.40;96.70
23499;DHT22;11926;48.120;11.562;2023-05-16T04:06:31;11.40;96.70
23499;DHT22;11926;48.120;11.562;2023-05-16T04:09:18;11.40;96.70
23499;DHT22;11926;48.120;11.562;2023-05-16T04:12:06;11.40;96.70
23499;DHT22;11926;48.120;11.562;2023-05-16T04:14:55;11.40;96.70
23499;DHT22;11926;48.120;11.562;2023-05-16T04:17:42;11.40;96.80
23499;DHT22;11926;48.120;11.562;2023-05-16T04:20:29;11.40;96.60
23499;DHT22;11926;48.120;11.562;2023-05-16T04:23:18;11.40;96.60
23499;DHT22;11926;48.120;11.562;2023-05-16T04:26:05;11.30;96.60
23499;DHT22;11926;48.120;11.562;2023-05-16T04:28:52;11.40;96.70
23499;DHT22;11926;48.120;11.562;2023-05-16T04:31:41;11.30;96.60
23499;DHT22;11926;48.120;11.562;2023-05-16T04:34:28;11.40;96.80
23499;DHT22;11926;48.120;11.562;2023-05-16T04:37:15;11.40;96.80
23499;DHT22;11926;48.120;11.562;2023-05-16T04:40:03;11.40;96.70
23499;DHT22;11926;48.120;11.562;2023-05-16T04:42:52;11.40;96.70
23499;DHT22;11926;48.120;11.562;2023-05-16T04:45:40;11.50;96.80
23499;DHT22;11926;48.120;11.562;2023-05-16T04:48:29;11.50;96.70
23499;DHT22;11926;48.120;11.562;2023-05-16T04:51:16;11.50;96.70
23499;DHT22;11926;48.120;11.562;2023-05-16T04:54:03;11.60;96.60
23499;DHT22;11926;48.120;11.562;2023-05-16T04:56:51;11.60;96.60
23499;DHT22;11926;48.120;11.562;2023-05-16T04:59:38;11.60;96.50
23499;DHT22;11926;48.120;11.562;2023-05-16T05:02:25;11.70;96.60
23499;DHT22;11926;48.120;11.562;2023-05-16T05:05:14;11.70;96.60
23499;DHT22;11926;48.120;11.562;2023-05-16T05:08:01;11.80;96.50
23499;DHT22;11926;48.120;11.562;2023-05-16T05:10:49;11.90;96.40
23499;DHT22;11926;48.120;11.562;2023-05-16T05:13:36;11.90;96.30
23499;DHT22;11926;48.120;11.562;2023-05-16T05:16:23;11.90;96.20
23499;DHT22;11926;48.120;11.562;2023-05-16T05:19:10;11.90;96.10
23499;DHT22;11926;48.120;11.562;2023-05-16T05:21:59;11.90;96.10
23499;DHT22;11926;48.120;11.562;2023-05-16T05:24:46;11.90;96.00
23499;DHT22;11926;48.120;11.562;2023-05-16T05:27:33;11.90;96.00
23499;DHT22;11926;48.120;11.562;2023-05-16T05:30:20;11.90;96.10
23499;DHT22;11926;48.120;11.562;2023-05-16T05:33:09;11.90;96.00
23499;DHT22;11926;48.120;11.562;2023-05-16T05:35:57;11.90;96.10
23499;DHT22;11926;48.120;11.562;2023-05-16T05:38:47;11.90;96.00
23499;DHT22;11926;48.120;11.562;2023-05-16T05:41:35;11.90;95.90
23499;DHT22;11926;48.120;11.562;2023-05-16T05:44:22;11.90;95.90
23499;DHT22;11926;48.120;11.562;2023-05-16T05:47:09;11.90;95.90
23499;DHT22;11926;48.120;11.562;2023-05-16T05:49:56;11.90;96.40
23499;DHT22;11926;48.120;11.562;2023-05-16T05:52:44;11.90;95.90
23499;DHT22;11926;48.120;11.562;2023-05-16T05:55:32;11.90;95.80
23499;DHT22;11926;48.120;11.562;2023-05-16T05:58:20;11.90;95.80
23499;DHT22;11926;48.120;11.562;2023-05-16T06:01:09;11.90;95.70
23499;DHT22;11926;48.120;11.562;2023-05-16T06:03:56;11.90;95.90
23499;DHT22;11926;48.120;11.562;2023-05-16T06:06:47;11.90;95.90
23499;DHT22;11926;48.120;11.562;2023-05-16T06:09:34;11.90;95.80
23499;DHT22;11926;48.120;11.562;2023-05-16T06:12:23;12.00;95.80
23499;DHT22;11926;48.120;11.562;2023-05-16T06:15:10;12.00;95.80
23499;DHT22;11926;48.120;11.562;2023-05-16T06:17:57;12.10;95.80
23499;DHT22;11926;48.120;11.562;2023-05-16T06:20:45;12.20;95.70
23499;DHT22;11926;48.120;11.562;2023-05-16T06:23:33;12.30;95.60
23499;DHT22;11926;48.120;11.562;2023-05-16T06:26:20;12.30;95.50
23499;DHT22;11926;48.120;11.562;2023-05-16T06:29:10;12.40;95.30
23499;DHT22;11926;48.120;11.562;2023-05-16T06:31:59;12.50;95.20
23499;DHT22;11926;48.120;11.562;2023-05-16T06:34:48;12.50;95.20
23499;DHT22;11926;48.120;11.562;2023-05-16T06:37:35;12.60;95.20
23499;DHT22;11926;48.120;11.562;2023-05-16T06:40:22;12.70;95.20
23499;DHT22;11926;48.120;11.562;2023-05-16T06:43:09;12.80;95.00
23499;DHT22;11926;48.120;11.562;2023-05-16T06:45:58;12.90;94.80
23499;DHT22;11926;48.120;11.562;2023-05-16T06:48:46;13.10;94.50
23499;DHT22;11926;48.120;11.562;2023-05-16T06:51:33;13.10;94.70
23499;DHT22;11926;48.120;11.562;2023-05-16T06:54:20;13.10;94.20
23499;DHT22;11926;48.120;11.562;2023-05-16T06:57:07;13.20;94.10
23499;DHT22;11926;48.120;11.562;2023-05-16T06:59:55;13.20;94.00
23499;DHT22;11926;48.120;11.562;2023-05-16T07:02:44;13.30;94.00
23499;DHT22;11926;48.120;11.562;2023-05-16T07:05:31;13.40;93.90
23499;DHT22;11926;48.120;11.562;2023-05-16T07:08:18;13.40;93.70
23499;DHT22;11926;48.120;11.562;2023-05-16T07:11:05;13.40;93.80
23499;DHT22;11926;48.120;11.562;2023-05-16T07:13:53;13.40;93.80
23499;DHT22;11926;48.120;11.562;2023-05-16T07:16:40;13.40;93.70
23499;DHT22;11926;48.120;11.562;2023-05-16T07:19:30;13.40;93.60
23499;DHT22;11926;48.120;11.562;2023-05-16T07:22:17;13.50;93.60
23499;DHT22;11926;48.120;11.562;2023-05-16T07:25:06;13.50;93.40
23499;DHT22;11926;48.120;11.562;2023-05-16T07:27:58;13.60;93.50
23499;DHT22;11926;48.120;11.562;2023-05-16T07:30:46;13.70;93.80
23499;DHT22;11926;48.120;11.562;2023-05-16T07:33:33;13.70;93.20
23499;DHT22;11926;48.120;11.562;2023-05-16T07:36:22;13.70;93.10
23499;DHT22;11926;48.120;11.562;2023-05-16T07:39:09;13.70;93.00
23499;DHT22;11926;48.120;11.562;2023-05-16T07:41:57;13.70;93.00
23499;DHT22;11926;48.120;11.562;2023-05-16T07:44:44;13.60;93.00
23499;DHT22;11926;48.120;11.562;2023-05-16T07:47:31;13.60;93.00
23499;DHT22;11926;48.120;11.562;2023-05-16T07:50:19;13.50;93.20
23499;DHT22;11926;48.120;11.562;2023-05-16T07:53:08;13.50;93.30
23499;DHT22;11926;48.120;11.562;2023-05-16T07:55:55;13.50;93.20
23499;DHT22;11926;48.120;11.562;2023-05-16T07:58:43;13.40;93.30
23499;DHT22;11926;48.120;11.562;2023-05-16T08:01:31;13.40;93.30
23499;DHT22;11926;48.120;11.562;2023-05-16T08:04:18;13.40;93.30
23499;DHT22;11926;48.120;11.562;2023-05-16T08:07:07;13.30;93.30
23499;DHT22;11926;48.120;11.562;2023-05-16T08:09:55;13.30;93.40
23499;DHT22;11926;48.120;11.562;2023-05-16T08:12:42;13.30;93.60
23499;DHT22;11926;48.120;11.562;2023-05-16T08:15:30;13.30;93.80
23499;DHT22;11926;48.120;11.562;2023-05-16T08:18:18;13.30;93.90
23499;DHT22;11926;48.120;11.562;2023-05-16T08:21:07;13.40;93.90
23499;DHT22;11926;48.120;11.562;2023-05-16T08:23:55;13.40;93.90
23499;DHT22;11926;48.120;11.562;2023-05-16T08:26:44;13.40;93.90
23499;DHT22;11926;48.120;11.562;2023-05-16T08:29:31;13.50;93.90
23499;DHT22;11926;48.120;11.562;2023-05-16T08:32:18;13.40;94.10
23499;DHT22;11926;48.120;11.562;2023-05-16T08:35:06;13.50;94.20
23499;DHT22;11926;48.120;11.562;2023-05-16T08:37:54;13.60;94.30
23499;DHT22;11926;48.120;11.562;2023-05-16T08:40:42;13.60;94.30
23499;DHT22;11926;48.120;11.562;2023-05-16T08:43:31;13.70;94.20
23499;DHT22;11926;48.120;11.562;2023-05-16T08:46:21;13.80;94.20
23499;DHT22;11926;48.120;11.562;2023-05-16T08:49:10;13.90;94.10
23499;DHT22;11926;48.120;11.562;2023-05-16T08:51:59;14.00;94.20
23499;DHT22;11926;48.120;11.562;2023-05-16T08:54:49;14.00;94.00
23499;DHT22;11926;48.120;11.562;2023-05-16T08:57:54;14.10;94.00
23499;DHT22;11926;48.120;11.562;2023-05-16T09:00:44;14.10;94.00
23499;DHT22;11926;48.120;11.562;2023-05-16T09:03:31;14.20;94.10
23499;DHT22;11926;48.120;11.562;2023-05-16T09:06:22;14.30;94.00
23499;DHT22;11926;48.120;11.562;2023-05-16T09:09:10;14.40;93.90
23499;DHT22;11926;48.120;11.562;2023-05-16T09:11:57;14.50;93.70
23499;DHT22;11926;48.120;11.562;2023-05-16T09:14:45;14.70;93.60
23499;DHT22;11926;48.120;11.562;2023-05-16T09:17:36;14.80;93.70
23499;DHT22;11926;48.120;11.562;2023-05-16T09:20:26;14.80;93.50
23499;DHT22;11926;48.120;11.562;2023-05-16T09:23:13;14.90;93.30
23499;DHT22;11926;48.120;11.562;2023-05-16T09:26:02;14.90;93.20
23499;DHT22;11926;48.120;11.562;2023-05-16T09:28:53;15.00;93.40
23499;DHT22;11926;48.120;11.562;2023-05-16T09:31:40;15.30;93.40
23499;DHT22;11926;48.120;11.562;2023-05-16T09:34:30;15.60;93.30
23499;DHT22;11926;48.120;11.562;2023-05-16T09:37:17;16.00;93.00
23499;DHT22;11926;48.120;11.562;2023-05-16T09:40:06;16.20;92.40
23499;DHT22;11926;48.120;11.562;2023-05-16T09:43:01;16.50;92.10
23499;DHT22;11926;48.120;11.562;2023-05-16T09:45:49;16.60;91.70
23499;DHT22;11926;48.120;11.562;2023-05-16T09:48:40;16.60;91.60
23499;DHT22;11926;48.120;11.562;2023-05-16T09:51:29;16.40;91.20
23499;DHT22;11926;48.120;11.562;2023-05-16T09:54:29;16.20;91.20
23499;DHT22;11926;48.120;11.562;2023-05-16T09:57:18;16.00;91.40
23499;DHT22;11926;48.120;11.562;2023-05-16T10:00:10;15.90;91.70
23499;DHT22;11926;48.120;11.562;2023-05-16T10:02:59;15.80;91.70
23499;DHT22;11926;48.120;11.562;2023-05-16T10:05:51;15.90;91.80
23499;DHT22;11926;48.120;11.562;2023-05-16T10:08:42;15.90;92.00
23499;DHT22;11926;48.120;11.562;2023-05-16T10:11:29;16.00;91.70
23499;DHT22;11926;48.120;11.562;2023-05-16T10:14:18;16.10;91.70
23499;DHT22;11926;48.120;11.562;2023-05-16T10:17:06;16.30;91.10
23499;DHT22;11926;48.120;11.562;2023-05-16T10:19:55;16.30;91.00
23499;DHT22;11926;48.120;11.562;2023-05-16T10:22:43;16.20;90.70
23499;DHT22;11926;48.120;11.562;2023-05-16T10:25:35;16.10;90.60
23499;DHT22;11926;48.120;11.562;2023-05-16T10:28:25;15.90;90.90
23499;DHT22;11926;48.120;11.562;2023-05-16T10:31:13;15.90;91.10
23499;DHT22;11926;48.120;11.562;2023-05-16T10:34:01;15.80;91.20
23499;DHT22;11926;48.120;11.562;2023-05-16T10:36:49;15.80;91.30
23499;DHT22;11926;48.120;11.562;2023-05-16T10:39:37;15.80;91.20
23499;DHT22;11926;48.120;11.562;2023-05-16T10:42:27;15.70;91.30
23499;DHT22;11926;48.120;11.562;2023-05-16T10:45:16;15.60;91.20
23499;DHT22;11926;48.120;11.562;2023-05-16T10:48:04;15.50;91.30
23499;DHT22;11926;48.120;11.562;2023-05-16T10:50:54;15.40;91.40
23499;DHT22;11926;48.120;11.562;2023-05-16T10:53:43;15.40;91.60
23499;DHT22;11926;48.120;11.562;2023-05-16T10:56:32;15.40;91.80
23499;DHT22;11926;48.120;11.562;2023-05-16T10:59:25;15.30;91.90
23499;DHT22;11926;48.120;11.562;2023-05-16T11:02:23;15.20;92.10
23499;DHT22;11926;48.120;11.562;2023-05-16T11:05:16;15.10;92.20
23499;DHT22;11926;48.120;11.562;2023-05-16T11:08:05;15.10;92.30
23499;DHT22;11926;48.120;11.562;2023-05-16T11:17:12;15.00;92.80
23499;DHT22;11926;48.120;11.562;2023-05-16T11:20:00;14.90;92.70
23499;DHT22;11926;48.120;11.562;2023-05-16T11:26:14;14.80;92.80
23499;DHT22;11926;48.120;11.562;2023-05-16T11:29:01;14.60;93.20
23499;DHT22;11926;48.120;11.562;2023-05-16T11:31:49;14.60;93.50
23499;DHT22;11926;48.120;11.562;2023-05-16T11:34:40;14.50;93.60
23499;DHT22;11926;48.120;11.562;2023-05-16T11:37:29;14.50;93.50
23499;DHT22;11926;48.120;11.562;2023-05-16T11:40:16;14.50;93.60
23499;DHT22;11926;48.120;11.562;2023-05-16T11:43:04;14.50;93.60
23499;DHT22;11926;48.120;11.562;2023-05-16T11:45:53;14.60;93.60
23499;DHT22;11926;48.120;11.562;2023-05-16T11:48:42;14.80;93.20
23499;DHT22;11926;48.120;11.562;2023-05-16T11:51:33;14.90;92.90
23499;DHT22;11926;48.120;11.562;2023-05-16T11:54:21;14.90;92.80
23499;DHT22;11926;48.120;11.562;2023-05-16T11:57:09;14.90;92.60
23499;DHT22;11926;48.120;11.562;2023-05-16T12:00:01;14.90;92.80
23499;DHT22;11926;48.120;11.562;2023-05-16T12:02:53;15.00;93.00
23499;DHT22;11926;48.120;11.562;2023-05-16T12:05:49;15.00;93.20
23499;DHT22;11926;48.120;11.562;2023-05-16T12:08:49;15.10;93.40
23499;DHT22;11926;48.120;11.562;2023-05-16T12:11:37;15.20;93.50
23499;DHT22;11926;48.120;11.562;2023-05-16T12:14:24;15.40;93.30
23499;DHT22;11926;48.120;11.562;2023-05-16T12:17:12;15.50;93.40
23499;DHT22;11926;48.120;11.562;2023-05-16T12:20:00;15.60;93.20
23499;DHT22;11926;48.120;11.562;2023-05-16T12:22:51;15.70;93.20
23499;DHT22;11926;48.120;11.562;2023-05-16T12:25:44;15.80;93.10
23499;DHT22;11926;48.120;11.562;2023-05-16T12:28:32;15.90;93.10
23499;DHT22;11926;48.120;11.562;2023-05-16T12:31:20;15.90;93.00
23499;DHT22;11926;48.120;11.562;2023-05-16T12:34:18;16.10;92.80
23499;DHT22;11926;48.120;11.562;2023-05-16T12:37:06;16.20;92.80
23499;DHT22;11926;48.120;11.562;2023-05-16T12:39:59;16.40;92.60
23499;DHT22;11926;48.120;11.562;2023-05-16T12:42:50;16.60;92.50
23499;DHT22;11926;48.120;11.562;2023-05-16T12:45:38;16.80;92.40
23499;DHT22;11926;48.120;11.562;2023-05-16T12:48:32;16.90;92.00
23499;DHT22;11926;48.120;11.562;2023-05-16T12:51:20;17.00;91.60
23499;DHT22;11926;48.120;11.562;2023-05-16T12:54:08;17.00;91.90
23499;DHT22;11926;48.120;11.562;2023-05-16T12:56:57;17.00;91.80
23499;DHT22;11926;48.120;11.562;2023-05-16T12:59:46;17.00;91.50
23499;DHT22;11926;48.120;11.562;2023-05-16T13:02:33;17.00;91.90
23499;DHT22;11926;48.120;11.562;2023-05-16T13:05:21;17.00;92.00
23499;DHT22;11926;48.120;11.562;2023-05-16T13:08:09;17.00;91.90
23499;DHT22;11926;48.120;11.562;2023-05-16T13:10:56;17.00;92.00
23499;DHT22;11926;48.120;11.562;2023-05-16T13:13:43;17.10;92.10
23499;DHT22;11926;48.120;11.562;2023-05-16T13:16:32;17.30;91.70
23499;DHT22;11926;48.120;11.562;2023-05-16T13:19:20;17.30;91.40
23499;DHT22;11926;48.120;11.562;2023-05-16T13:22:09;17.30;91.40
23499;DHT22;11926;48.120;11.562;2023-05-16T13:24:56;17.30;91.40
23499;DHT22;11926;48.120;11.562;2023-05-16T13:27:43;17.30;91.30
23499;DHT22;11926;48.120;11.562;2023-05-16T13:30:31;17.20;91.40
23499;DHT22;11926;48.120;11.562;2023-05-16T13:33:20;17.00;91.50
23499;DHT22;11926;48.120;11.562;2023-05-16T13:36:07;16.90;91.60
23499;DHT22;11926;48.120;11.562;2023-05-16T13:38:54;16.70;91.20
23499;DHT22;11926;48.120;11.562;2023-05-16T13:41:42;16.40;90.90
23499;DHT22;11926;48.120;11.562;2023-05-16T13:44:31;16.00;91.00
23499;DHT22;11926;48.120;11.562;2023-05-16T13:47:19;15.50;91.20
23499;DHT22;11926;48.120;11.562;2023-05-16T13:50:08;15.10;91.80
23499;DHT22;11926;48.120;11.562;2023-05-16T13:52:55;14.70;92.40
23499;DHT22;11926;48.120;11.562;2023-05-16T13:55:42;14.30;93.00
23499;DHT22;11926;48.120;11.562;2023-05-16T13:58:30;14.10;93.30
23499;DHT22;11926;48.120;11.562;2023-05-16T14:01:17;13.90;93.40
23499;DHT22;11926;48.120;11.562;2023-05-16T14:04:04;13.80;93.80
23499;DHT22;11926;48.120;11.562;2023-05-16T14:06:53;13.70;93.90
23499;DHT22;11926;48.120;11.562;2023-05-16T14:09:41;13.60;94.20
23499;DHT22;11926;48.120;11.562;2023-05-16T14:12:29;13.70;94.10
23499;DHT22;11926;48.120;11.562;2023-05-16T14:15:16;13.70;94.20
23499;DHT22;11926;48.120;11.562;2023-05-16T14:18:04;13.70;94.20
23499;DHT22;11926;48.120;11.562;2023-05-16T14:20:52;13.70;94.30
23499;DHT22;11926;48.120;11.562;2023-05-16T14:23:42;13.70;94.20
23499;DHT22;11926;48.120;11.562;2023-05-16T14:26:30;13.70;94.30
23499;DHT22;11926;48.120;11.562;2023-05-16T14:29:17;13.70;94.20
23499;DHT22;11926;48.120;11.562;2023-05-16T14:32:05;13.60;94.30
23499;DHT22;11926;48.120;11.562;2023-05-16T14:34:53;13.60;94.50
23499;DHT22;11926;48.120;11.562;2023-05-16T14:37:40;13.60;94.30
23499;DHT22;11926;48.120;11.562;2023-05-16T14:40:29;13.60;94.40
23499;DHT22;11926;48.120;11.562;2023-05-16T14:43:16;13.60;94.70
23499;DHT22;11926;48.120;11.562;2023-05-16T14:46:04;13.60;94.60
23499;DHT22;11926;48.120;11.562;2023-05-16T14:48:51;13.60;94.80
23499;DHT22;11926;48.120;11.562;2023-05-16T14:51:38;13.60;94.80
23499;DHT22;11926;48.120;11.562;2023-05-16T14:54:26;13.60;94.90
23499;DHT22;11926;48.120;11.562;2023-05-16T14:57:15;13.60;94.90
23499;DHT22;11926;48.120;11.562;2023-05-16T15:00:02;13.70;94.90
23499;DHT22;11926;48.120;11.562;2023-05-16T15:02:52;13.60;95.60
23499;DHT22;11926;48.120;11.562;2023-05-16T15:05:39;13.70;95.20
23499;DHT22;11926;48.120;11.562;2023-05-16T15:08:26;13.70;95.10
23499;DHT22;11926;48.120;11.562;2023-05-16T15:11:14;13.70;95.10
23499;DHT22;11926;48.120;11.562;2023-05-16T15:14:03;13.70;94.90
23499;DHT22;11926;48.120;11.562;2023-05-16T15:16:50;13.60;95.00
23499;DHT22;11926;48.120;11.562;2023-05-16T15:19:37;13.50;95.10
23499;DHT22;11926;48.120;11.562;2023-05-16T15:22:24;13.50;95.10
23499;DHT22;11926;48.120;11.562;2023-05-16T15:25:14;13.50;95.20
23499;DHT22;11926;48.120;11.562;2023-05-16T15:28:02;13.50;95.30
23499;DHT22;11926;48.120;11.562;2023-05-16T15:30:52;13.40;95.30
23499;DHT22;11926;48.120;11.562;2023-05-16T15:33:39;13.50;95.40
23499;DHT22;11926;48.120;11.562;2023-05-16T15:36:26;13.60;95.50
23499;DHT22;11926;48.120;11.562;2023-05-16T15:39:14;13.60;95.60
23499;DHT22;11926;48.120;11.562;2023-05-16T15:42:02;13.60;95.50
23499;DHT22;11926;48.120;11.562;2023-05-16T15:44:56;13.60;95.30
23499;DHT22;11926;48.120;11.562;2023-05-16T15:47:45;13.60;95.30
23499;DHT22;11926;48.120;11.562;2023-05-16T15:50:32;13.50;95.20
23499;DHT22;11926;48.120;11.562;2023-05-16T15:53:19;13.50;95.30
23499;DHT22;11926;48.120;11.562;2023-05-16T15:56:07;13.50;95.40
23499;DHT22;11926;48.120;11.562;2023-05-16T15:58:55;13.50;95.40
23499;DHT22;11926;48.120;11.562;2023-05-16T16:01:42;13.40;95.50
23499;DHT22;11926;48.120;11.562;2023-05-16T16:04:31;13.40;95.50
23499;DHT22;11926;48.120;11.562;2023-05-16T16:07:18;13.40;95.70
23499;DHT22;11926;48.120;11.562;2023-05-16T16:10:07;13.40;95.90
23499;DHT22;11926;48.120;11.562;2023-05-16T16:12:58;13.50;95.90
23499;DHT22;11926;48.120;11.562;2023-05-16T16:15:46;13.50;96.00
23499;DHT22;11926;48.120;11.562;2023-05-16T16:18:33;13.50;95.80
23499;DHT22;11926;48.120;11.562;2023-05-16T16:21:22;13.50;95.70
23499;DHT22;11926;48.120;11.562;2023-05-16T16:24:09;13.50;95.90
23499;DHT22;11926;48.120;11.562;2023-05-16T16:26:56;13.50;96.10
23499;DHT22;11926;48.120;11.562;2023-05-16T16:29:43;13.50;95.90
23499;DHT22;11926;48.120;11.562;2023-05-16T16:32:30;13.50;96.00
23499;DHT22;11926;48.120;11.562;2023-05-16T16:35:18;13.50;96.00
23499;DHT22;11926;48.120;11.562;2023-05-16T16:38:06;13.40;95.80
23499;DHT22;11926;48.120;11.562;2023-05-16T16:40:53;13.40;95.90
23499;DHT22;11926;48.120;11.562;2023-05-16T16:43:40;13.40;95.90
23499;DHT22;11926;48.120;11.562;2023-05-16T16:46:28;13.40;96.00
23499;DHT22;11926;48.120;11.562;2023-05-16T16:49:15;13.40;96.10
23499;DHT22;11926;48.120;11.562;2023-05-16T16:52:02;13.30;96.10
23499;DHT22;11926;48.120;11.562;2023-05-16T16:54:51;13.30;96.20
23499;DHT22;11926;48.120;11.562;2023-05-16T16:57:39;13.30;96.30
23499;DHT22;11926;48.120;11.562;2023-05-16T17:00:27;13.30;96.20
23499;DHT22;11926;48.120;11.562;2023-05-16T17:03:14;13.30;96.30
23499;DHT22;11926;48.120;11.562;2023-05-16T17:06:02;13.30;96.30
23499;DHT22;11926;48.120;11.562;2023-05-16T17:08:49;13.30;96.40
23499;DHT22;11926;48.120;11.562;2023-05-16T17:11:37;13.30;96.50
23499;DHT22;11926;48.120;11.562;2023-05-16T17:14:25;13.30;96.40
23499;DHT22;11926;48.120;11.562;2023-05-16T17:17:13;13.30;96.50
23499;DHT22;11926;48.120;11.562;2023-05-16T17:20:00;13.30;96.40
23499;DHT22;11926;48.120;11.562;2023-05-16T17:22:52;13.30;96.40
23499;DHT22;11926;48.120;11.562;2023-05-16T17:25:39;13.30;96.50
23499;DHT22;11926;48.120;11.562;2023-05-16T17:28:28;13.30;96.50
23499;DHT22;11926;48.120;11.562;2023-05-16T17:31:16;13.30;96.70
23499;DHT22;11926;48.120;11.562;2023-05-16T17:34:03;13.30;96.60
23499;DHT22;11926;48.120;11.562;2023-05-16T17:36:50;13.20;96.50